sensor_id;sensor_type;location;lat;lon;timestamp;P1;durP1;ratioP1;P2;durP2;ratioP2
52274;SDS011;38228;50.940;4.024;2022-09-09T00:04:14;0.00;;;0.00;;
52274;SDS011;38228;50.940;4.024;2022-09-09T00:09:28;0.10;;;0.10;;
52274;SDS011;38228;50.940;4.024;2022-09-09T00:12:04;0.00;;;0.00;;
52274;SDS011;38228;50.940;4.024;2022-09-09T00:14:45;0.00;;;0.00;;
52274;SDS011;38228;50.940;4.024;2022-09-09T00:23:00;0.00;;;0.00;;
52274;SDS011;38228;50.940;4.024;2022-09-09T00:28:26;0.10;;;0.10;;
52274;SDS011;38228;50.940;4.024;2022-09-09T00:30:57;0.10;;;0.03;;
52274;SDS011;38228;50.940;4.024;2022-09-09T00:33:43;0.00;;;0.00;;
52274;SDS011;38228;50.940;4.024;2022-09-09T00:36:12;0.00;;;0.00;;
52274;SDS011;38228;50.940;4.024;2022-09-09T00:38:42;0.00;;;0.00;;
52274;SDS011;38228;50.940;4.024;2022-09-09T00:41:15;0.00;;;0.00;;
52274;SDS011;38228;50.940;4.024;2022-09-09T00:43:42;0.00;;;0.00;;
52274;SDS011;38228;50.940;4.024;2022-09-09T00:59:50;0.25;;;0.25;;
52274;SDS011;38228;50.940;4.024;2022-09-09T01:02:39;0.22;;;0.22;;
52274;SDS011;38228;50.940;4.024;2022-09-09T01:05:17;0.00;;;0.00;;
52274;SDS011;38228;50.940;4.024;2022-09-09T01:07:50;0.00;;;0.00;;
52274;SDS011;38228;50.940;4.024;2022-09-09T01:13:27;0.00;;;0.00;;
52274;SDS011;38228;50.940;4.024;2022-09-09T01:15:59;0.00;;;0.00;;
52274;SDS011;38228;50.940;4.024;2022-09-09T01:18:28;0.00;;;0.00;;
52274;SDS011;38228;50.940;4.024;2022-09-09T01:24:05;1.98;;;0.60;;
52274;SDS011;38228;50.940;4.024;2022-09-09T01:26:34;0.00;;;0.00;;
52274;SDS011;38228;50.940;4.024;2022-09-09T01:29:08;0.00;;;0.00;;
52274;SDS011;38228;50.940;4.024;2022-09-09T01:31:51;0.00;;;0.00;;
52274;SDS011;38228;50.940;4.024;2022-09-09T01:34:19;0.32;;;0.00;;
52274;SDS011;38228;50.940;4.024;2022-09-09T01:36:47;0.00;;;0.00;;
52274;SDS011;38228;50.940;4.024;2022-09-09T01:39:20;0.15;;;0.15;;
52274;SDS011;38228;50.940;4.024;2022-09-09T01:41:46;0.00;;;0.00;;
52274;SDS011;38228;50.940;4.024;2022-09-09T01:44:12;0.00;;;0.00;;
52274;SDS011;38228;50.940;4.024;2022-09-09T01:46:38;0.00;;;0.00;;
52274;SDS011;38228;50.940;4.024;2022-09-09T01:49:04;0.95;;;0.60;;
52274;SDS011;38228;50.940;4.024;2022-09-09T01:51:32;0.00;;;0.00;;
52274;SDS011;38228;50.940;4.024;2022-09-09T01:53:58;0.00;;;0.00;;
52274;SDS011;38228;50.940;4.024;2022-09-09T01:56:42;1.45;;;0.68;;
52274;SDS011;38228;50.940;4.024;2022-09-09T02:04:50;0.00;;;0.00;;
52274;SDS011;38228;50.940;4.024;2022-09-09T02:10:05;0.32;;;0.32;;
52274;SDS011;38228;50.940;4.024;2022-09-09T02:12:36;0.00;;;0.00;;
52274;SDS011;38228;50.940;4.024;2022-09-09T02:15:10;0.00;;;0.00;;
52274;SDS011;38228;50.940;4.024;2022-09-09T02:17:51;0.00;;;0.00;;
52274;SDS011;38228;50.940;4.024;2022-09-09T02:20:18;0.00;;;0.00;;
52274;SDS011;38228;50.940;4.024;2022-09-09T02:22:46;0.00;;;0.00;;
52274;SDS011;38228;50.940;4.024;2022-09-09T02:25:14;0.00;;;0.00;;
52274;SDS011;38228;50.940;4.024;2022-09-09T02:27:44;0.00;;;0.00;;
52274;SDS011;38228;50.940;4.024;2022-09-09T02:30:12;0.00;;;0.00;;
52274;SDS011;38228;50.940;4.024;2022-09-09T02:32:39;0.00;;;0.00;;
52274;SDS011;38228;50.940;4.024;2022-09-09T02:35:09;0.00;;;0.00;;
52274;SDS011;38228;50.940;4.024;2022-09-09T02:37:42;0.77;;;0.30;;
52274;SDS011;38228;50.940;4.024;2022-09-09T02:40:13;0.10;;;0.10;;
52274;SDS011;38228;50.940;4.024;2022-09-09T02:42:41;0.05;;;0.05;;
52274;SDS011;38228;50.940;4.024;2022-09-09T02:45:09;0.00;;;0.00;;
52274;SDS011;38228;50.940;4.024;2022-09-09T02:50:26;3.70;;;1.75;;
52274;SDS011;38228;50.940;4.024;2022-09-09T02:58:08;0.00;;;0.00;;
52274;SDS011;38228;50.940;4.024;2022-09-09T03:00:38;0.00;;;0.00;;
52274;SDS011;38228;50.940;4.024;2022-09-09T03:03:05;0.85;;;0.55;;
52274;SDS011;38228;50.940;4.024;2022-09-09T03:05:33;0.00;;;0.00;;
52274;SDS011;38228;50.940;4.024;2022-09-09T03:07:59;0.00;;;0.00;;
52274;SDS011;38228;50.940;4.024;2022-09-09T03:10:25;0.00;;;0.00;;
52274;SDS011;38228;50.940;4.024;2022-09-09T03:12:50;1.98;;;0.70;;
52274;SDS011;38228;50.940;4.024;2022-09-09T03:15:16;0.75;;;0.75;;
52274;SDS011;38228;50.940;4.024;2022-09-09T03:17:42;0.00;;;0.00;;
52274;SDS011;38228;50.940;4.024;2022-09-09T03:20:08;2.10;;;1.15;;
52274;SDS011;38228;50.940;4.024;2022-09-09T03:22:34;0.00;;;0.00;;
52274;SDS011;38228;50.940;4.024;2022-09-09T03:25:00;0.00;;;0.00;;
52274;SDS011;38228;50.940;4.024;2022-09-09T03:27:27;0.10;;;0.10;;
52274;SDS011;38228;50.940;4.024;2022-09-09T03:29:54;0.10;;;0.10;;
52274;SDS011;38228;50.940;4.024;2022-09-09T03:32:20;0.47;;;0.47;;
52274;SDS011;38228;50.940;4.024;2022-09-09T03:34:47;0.00;;;0.00;;
52274;SDS011;38228;50.940;4.024;2022-09-09T03:37:15;2.72;;;0.80;;
52274;SDS011;38228;50.940;4.024;2022-09-09T03:39:42;0.88;;;0.80;;
52274;SDS011;38228;50.940;4.024;2022-09-09T03:42:08;0.32;;;0.32;;
52274;SDS011;38228;50.940;4.024;2022-09-09T03:44:34;0.00;;;0.00;;
52274;SDS011;38228;50.940;4.024;2022-09-09T03:46:59;0.00;;;0.00;;
52274;SDS011;38228;50.940;4.024;2022-09-09T03:49:25;0.90;;;0.50;;
52274;SDS011;38228;50.940;4.024;2022-09-09T03:51:53;0.00;;;0.00;;
52274;SDS011;38228;50.940;4.024;2022-09-09T03:54:21;0.00;;;0.00;;
52274;SDS011;38228;50.940;4.024;2022-09-09T03:56:47;0.10;;;0.10;;
52274;SDS011;38228;50.940;4.024;2022-09-09T03:59:13;0.28;;;0.28;;
52274;SDS011;38228;50.940;4.024;2022-09-09T04:01:39;0.00;;;0.00;;
52274;SDS011;38228;50.940;4.024;2022-09-09T04:04:05;0.10;;;0.10;;
52274;SDS011;38228;50.940;4.024;2022-09-09T04:06:30;0.00;;;0.00;;
52274;SDS011;38228;50.940;4.024;2022-09-09T04:08:56;0.00;;;0.00;;
52274;SDS011;38228;50.940;4.024;2022-09-09T04:11:22;0.00;;;0.00;;
52274;SDS011;38228;50.940;4.024;2022-09-09T04:13:47;0.15;;;0.15;;
52274;SDS011;38228;50.940;4.024;2022-09-09T04:16:14;0.00;;;0.00;;
52274;SDS011;38228;50.940;4.024;2022-09-09T04:18:40;0.00;;;0.00;;
52274;SDS011;38228;50.940;4.024;2022-09-09T04:21:06;0.70;;;0.47;;
52274;SDS011;38228;50.940;4.024;2022-09-09T04:23:33;0.13;;;0.13;;
52274;SDS011;38228;50.940;4.024;2022-09-09T04:26:00;0.00;;;0.00;;
52274;SDS011;38228;50.940;4.024;2022-09-09T04:28:30;2.80;;;1.40;;
52274;SDS011;38228;50.940;4.024;2022-09-09T04:30:57;0.00;;;0.00;;
52274;SDS011;38228;50.940;4.024;2022-09-09T04:33:29;0.00;;;0.00;;
52274;SDS011;38228;50.940;4.024;2022-09-09T04:35:56;0.38;;;0.38;;
52274;SDS011;38228;50.940;4.024;2022-09-09T04:38:22;0.00;;;0.00;;
52274;SDS011;38228;50.940;4.024;2022-09-09T04:40:48;0.15;;;0.15;;
52274;SDS011;38228;50.940;4.024;2022-09-09T04:43:15;0.10;;;0.10;;
52274;SDS011;38228;50.940;4.024;2022-09-09T04:45:41;0.25;;;0.25;;
52274;SDS011;38228;50.940;4.024;2022-09-09T04:48:08;0.10;;;0.10;;
52274;SDS011;38228;50.940;4.024;2022-09-09T04:50:34;0.00;;;0.00;;
52274;SDS011;38228;50.940;4.024;2022-09-09T04:53:01;0.10;;;0.10;;
52274;SDS011;38228;50.940;4.024;2022-09-09T04:55:27;0.00;;;0.00;;
52274;SDS011;38228;50.940;4.024;2022-09-09T04:57:53;0.00;;;0.00;;
52274;SDS011;38228;50.940;4.024;2022-09-09T05:00:19;0.13;;;0.13;;
52274;SDS011;38228;50.940;4.024;2022-09-09T05:02:45;0.00;;;0.00;;
52274;SDS011;38228;50.940;4.024;2022-09-09T05:05:11;13.95;;;0.63;;
52274;SDS011;38228;50.940;4.024;2022-09-09T05:07:39;5.47;;;0.15;;
52274;SDS011;38228;50.940;4.024;2022-09-09T05:10:04;0.08;;;0.08;;
52274;SDS011;38228;50.940;4.024;2022-09-09T05:12:31;3.53;;;2.08;;
52274;SDS011;38228;50.940;4.024;2022-09-09T05:14:57;0.00;;;0.00;;
52274;SDS011;38228;50.940;4.024;2022-09-09T05:17:23;0.13;;;0.13;;
52274;SDS011;38228;50.940;4.024;2022-09-09T05:19:48;0.00;;;0.00;;
52274;SDS011;38228;50.940;4.024;2022-09-09T05:22:18;0.00;;;0.00;;
52274;SDS011;38228;50.940;4.024;2022-09-09T05:24:48;2.17;;;0.38;;
52274;SDS011;38228;50.940;4.024;2022-09-09T05:27:15;0.15;;;0.00;;
52274;SDS011;38228;50.940;4.024;2022-09-09T05:29:43;0.00;;;0.00;;
52274;SDS011;38228;50.940;4.024;2022-09-09T05:32:09;0.10;;;0.10;;
52274;SDS011;38228;50.940;4.024;2022-09-09T05:34:35;12.40;;;0.40;;
52274;SDS011;38228;50.940;4.024;2022-09-09T05:37:02;0.52;;;0.52;;
52274;SDS011;38228;50.940;4.024;2022-09-09T05:39:29;1.08;;;0.65;;
52274;SDS011;38228;50.940;4.024;2022-09-09T05:41:55;0.10;;;0.10;;
52274;SDS011;38228;50.940;4.024;2022-09-09T05:44:20;0.30;;;0.08;;
52274;SDS011;38228;50.940;4.024;2022-09-09T05:46:48;0.17;;;0.17;;
52274;SDS011;38228;50.940;4.024;2022-09-09T05:49:14;4.13;;;1.45;;
52274;SDS011;38228;50.940;4.024;2022-09-09T05:51:40;0.08;;;0.08;;
52274;SDS011;38228;50.940;4.024;2022-09-09T05:54:07;3.50;;;1.00;;
52274;SDS011;38228;50.940;4.024;2022-09-09T05:56:33;0.20;;;0.20;;
52274;SDS011;38228;50.940;4.024;2022-09-09T05:58:59;0.00;;;0.00;;
52274;SDS011;38228;50.940;4.024;2022-09-09T06:01:27;0.13;;;0.08;;
52274;SDS011;38228;50.940;4.024;2022-09-09T08:48:18;14.15;;;1.92;;
52274;SDS011;38228;50.940;4.024;2022-09-09T08:51:21;10.20;;;2.20;;
52274;SDS011;38228;50.940;4.024;2022-09-09T08:53:55;12.40;;;2.45;;
52274;SDS011;38228;50.940;4.024;2022-09-09T08:56:25;9.38;;;2.13;;
52274;SDS011;38228;50.940;4.024;2022-09-09T08:58:56;10.35;;;2.25;;
52274;SDS011;38228;50.940;4.024;2022-09-09T09:06:54;9.15;;;2.00;;
52274;SDS011;38228;50.940;4.024;2022-09-09T09:09:46;14.13;;;2.35;;
52274;SDS011;38228;50.940;4.024;2022-09-09T09:12:28;13.07;;;2.13;;
52274;SDS011;38228;50.940;4.024;2022-09-09T09:14:57;9.45;;;1.95;;
52274;SDS011;38228;50.940;4.024;2022-09-09T09:17:25;14.45;;;2.38;;
52274;SDS011;38228;50.940;4.024;2022-09-09T09:19:56;12.85;;;2.40;;
52274;SDS011;38228;50.940;4.024;2022-09-09T09:22:43;12.68;;;2.63;;
52274;SDS011;38228;50.940;4.024;2022-09-09T09:25:20;11.18;;;2.30;;
52274;SDS011;38228;50.940;4.024;2022-09-09T09:30:46;10.95;;;1.88;;
52274;SDS011;38228;50.940;4.024;2022-09-09T09:33:20;14.00;;;1.92;;
52274;SDS011;38228;50.940;4.024;2022-09-09T09:35:57;15.38;;;2.55;;
52274;SDS011;38228;50.940;4.024;2022-09-09T09:38:25;9.52;;;2.00;;
52274;SDS011;38228;50.940;4.024;2022-09-09T09:40:53;8.00;;;1.65;;
52274;SDS011;38228;50.940;4.024;2022-09-09T09:46:00;13.35;;;2.20;;
52274;SDS011;38228;50.940;4.024;2022-09-09T09:48:28;13.48;;;2.38;;
52274;SDS011;38228;50.940;4.024;2022-09-09T09:50:55;10.15;;;2.25;;
52274;SDS011;38228;50.940;4.024;2022-09-09T09:53:33;10.45;;;1.67;;
52274;SDS011;38228;50.940;4.024;2022-09-09T09:56:01;16.13;;;2.00;;
52274;SDS011;38228;50.940;4.024;2022-09-09T10:04:18;8.85;;;1.77;;
52274;SDS011;38228;50.940;4.024;2022-09-09T10:06:46;10.32;;;1.85;;
52274;SDS011;38228;50.940;4.024;2022-09-09T10:09:28;11.43;;;1.55;;
52274;SDS011;38228;50.940;4.024;2022-09-09T10:17:16;7.65;;;1.60;;
52274;SDS011;38228;50.940;4.024;2022-09-09T10:22:50;6.68;;;1.85;;
52274;SDS011;38228;50.940;4.024;2022-09-09T10:30:53;7.90;;;1.50;;
52274;SDS011;38228;50.940;4.024;2022-09-09T10:33:37;4.45;;;1.75;;
52274;SDS011;38228;50.940;4.024;2022-09-09T10:36:23;7.07;;;1.73;;
52274;SDS011;38228;50.940;4.024;2022-09-09T10:47:09;6.72;;;1.50;;
52274;SDS011;38228;50.940;4.024;2022-09-09T10:55:24;7.28;;;1.67;;
52274;SDS011;38228;50.940;4.024;2022-09-09T10:57:58;6.75;;;1.58;;
52274;SDS011;38228;50.940;4.024;2022-09-09T11:00:28;7.03;;;1.33;;
52274;SDS011;38228;50.940;4.024;2022-09-09T11:03:28;5.13;;;1.52;;
52274;SDS011;38228;50.940;4.024;2022-09-09T11:08:28;6.85;;;1.25;;
52274;SDS011;38228;50.940;4.024;2022-09-09T11:11:00;6.15;;;1.30;;
52274;SDS011;38228;50.940;4.024;2022-09-09T11:13:37;7.32;;;1.52;;
52274;SDS011;38228;50.940;4.024;2022-09-09T11:19:04;3.95;;;0.98;;
52274;SDS011;38228;50.940;4.024;2022-09-09T11:21:45;6.50;;;1.10;;
52274;SDS011;38228;50.940;4.024;2022-09-09T11:24:31;5.70;;;1.65;;
52274;SDS011;38228;50.940;4.024;2022-09-09T11:27:08;3.95;;;1.20;;
52274;SDS011;38228;50.940;4.024;2022-09-09T11:30:11;3.88;;;1.10;;
52274;SDS011;38228;50.940;4.024;2022-09-09T11:35:41;5.20;;;1.20;;
52274;SDS011;38228;50.940;4.024;2022-09-09T11:38:38;4.82;;;1.35;;
52274;SDS011;38228;50.940;4.024;2022-09-09T11:41:12;6.82;;;1.10;;
52274;SDS011;38228;50.940;4.024;2022-09-09T11:46:06;8.10;;;1.20;;
52274;SDS011;38228;50.940;4.024;2022-09-09T11:48:37;3.90;;;1.10;;
52274;SDS011;38228;50.940;4.024;2022-09-09T11:53:53;6.03;;;1.45;;
52274;SDS011;38228;50.940;4.024;2022-09-09T11:56:26;4.85;;;1.35;;
52274;SDS011;38228;50.940;4.024;2022-09-09T11:59:00;4.78;;;1.25;;
52274;SDS011;38228;50.940;4.024;2022-09-09T12:01:30;4.65;;;1.20;;
52274;SDS011;38228;50.940;4.024;2022-09-09T12:04:10;7.40;;;1.65;;
52274;SDS011;38228;50.940;4.024;2022-09-09T12:06:51;7.68;;;1.50;;
52274;SDS011;38228;50.940;4.024;2022-09-09T12:12:04;5.65;;;1.50;;
52274;SDS011;38228;50.940;4.024;2022-09-09T12:17:20;6.72;;;1.15;;
52274;SDS011;38228;50.940;4.024;2022-09-09T12:19:48;6.78;;;1.30;;
52274;SDS011;38228;50.940;4.024;2022-09-09T12:30:23;6.95;;;1.20;;
52274;SDS011;38228;50.940;4.024;2022-09-09T12:33:06;4.18;;;1.17;;
52274;SDS011;38228;50.940;4.024;2022-09-09T12:35:36;3.33;;;1.10;;
52274;SDS011;38228;50.940;4.024;2022-09-09T12:38:03;4.20;;;1.23;;
52274;SDS011;38228;50.940;4.024;2022-09-09T12:40:35;4.43;;;1.23;;
52274;SDS011;38228;50.940;4.024;2022-09-09T12:43:01;6.47;;;1.25;;
52274;SDS011;38228;50.940;4.024;2022-09-09T12:45:42;5.57;;;1.13;;
52274;SDS011;38228;50.940;4.024;2022-09-09T12:48:08;3.83;;;0.90;;
52274;SDS011;38228;50.940;4.024;2022-09-09T12:50:44;4.93;;;1.20;;
52274;SDS011;38228;50.940;4.024;2022-09-09T12:56:28;3.35;;;1.20;;
52274;SDS011;38228;50.940;4.024;2022-09-09T12:58:56;4.45;;;1.20;;
52274;SDS011;38228;50.940;4.024;2022-09-09T13:01:24;3.95;;;1.10;;
52274;SDS011;38228;50.940;4.024;2022-09-09T13:03:50;4.43;;;1.35;;
52274;SDS011;38228;50.940;4.024;2022-09-09T13:06:19;5.50;;;1.30;;
52274;SDS011;38228;50.940;4.024;2022-09-09T13:08:50;5.30;;;1.35;;
52274;SDS011;38228;50.940;4.024;2022-09-09T13:11:17;4.95;;;1.30;;
52274;SDS011;38228;50.940;4.024;2022-09-09T13:13:51;4.55;;;1.30;;
52274;SDS011;38228;50.940;4.024;2022-09-09T13:16:28;4.88;;;1.48;;
52274;SDS011;38228;50.940;4.024;2022-09-09T13:18:57;7.18;;;1.20;;
52274;SDS011;38228;50.940;4.024;2022-09-09T13:21:35;4.10;;;1.10;;
52274;SDS011;38228;50.940;4.024;2022-09-09T13:24:03;7.00;;;1.40;;
52274;SDS011;38228;50.940;4.024;2022-09-09T13:26:32;5.20;;;1.15;;
52274;SDS011;38228;50.940;4.024;2022-09-09T13:29:16;2.15;;;0.70;;
52274;SDS011;38228;50.940;4.024;2022-09-09T13:31:43;5.43;;;1.20;;
52274;SDS011;38228;50.940;4.024;2022-09-09T13:34:28;6.28;;;1.10;;
52274;SDS011;38228;50.940;4.024;2022-09-09T13:36:57;3.75;;;1.20;;
52274;SDS011;38228;50.940;4.024;2022-09-09T13:41:54;5.72;;;1.38;;
52274;SDS011;38228;50.940;4.024;2022-09-09T13:44:21;5.22;;;1.02;;
52274;SDS011;38228;50.940;4.024;2022-09-09T13:46:59;2.97;;;1.08;;
52274;SDS011;38228;50.940;4.024;2022-09-09T13:49:46;4.20;;;0.90;;
52274;SDS011;38228;50.940;4.024;2022-09-09T13:52:15;3.33;;;1.20;;
52274;SDS011;38228;50.940;4.024;2022-09-09T13:54:47;5.68;;;1.00;;
52274;SDS011;38228;50.940;4.024;2022-09-09T13:57:18;2.28;;;0.90;;
52274;SDS011;38228;50.940;4.024;2022-09-09T13:59:46;3.45;;;1.20;;
52274;SDS011;38228;50.940;4.024;2022-09-09T14:02:12;4.10;;;0.82;;
52274;SDS011;38228;50.940;4.024;2022-09-09T14:04:38;5.68;;;1.20;;
52274;SDS011;38228;50.940;4.024;2022-09-09T14:07:07;4.88;;;1.00;;
52274;SDS011;38228;50.940;4.024;2022-09-09T14:09:36;6.07;;;1.10;;
52274;SDS011;38228;50.940;4.024;2022-09-09T14:12:02;4.28;;;1.25;;
52274;SDS011;38228;50.940;4.024;2022-09-09T14:14:28;7.82;;;1.20;;
52274;SDS011;38228;50.940;4.024;2022-09-09T14:16:54;3.15;;;1.10;;
52274;SDS011;38228;50.940;4.024;2022-09-09T14:19:19;2.55;;;1.13;;
52274;SDS011;38228;50.940;4.024;2022-09-09T14:21:45;4.50;;;1.00;;
52274;SDS011;38228;50.940;4.024;2022-09-09T14:24:11;4.50;;;1.40;;
52274;SDS011;38228;50.940;4.024;2022-09-09T14:26:37;4.32;;;1.20;;
52274;SDS011;38228;50.940;4.024;2022-09-09T14:29:03;3.33;;;0.90;;
52274;SDS011;38228;50.940;4.024;2022-09-09T14:31:28;5.57;;;1.25;;
52274;SDS011;38228;50.940;4.024;2022-09-09T14:33:54;4.65;;;1.17;;
52274;SDS011;38228;50.940;4.024;2022-09-09T14:36:20;6.07;;;1.58;;
52274;SDS011;38228;50.940;4.024;2022-09-09T14:38:46;4.13;;;1.00;;
52274;SDS011;38228;50.940;4.024;2022-09-09T14:41:13;4.60;;;1.70;;
52274;SDS011;38228;50.940;4.024;2022-09-09T14:43:44;3.38;;;0.95;;
52274;SDS011;38228;50.940;4.024;2022-09-09T14:46:12;5.57;;;1.10;;
52274;SDS011;38228;50.940;4.024;2022-09-09T14:48:39;2.97;;;1.05;;
52274;SDS011;38228;50.940;4.024;2022-09-09T14:51:13;5.40;;;1.10;;
52274;SDS011;38228;50.940;4.024;2022-09-09T14:53:41;5.85;;;1.20;;
52274;SDS011;38228;50.940;4.024;2022-09-09T14:56:08;3.88;;;1.27;;
52274;SDS011;38228;50.940;4.024;2022-09-09T14:58:35;5.05;;;1.10;;
52274;SDS011;38228;50.940;4.024;2022-09-09T15:01:05;4.88;;;1.30;;
52274;SDS011;38228;50.940;4.024;2022-09-09T15:03:39;5.82;;;1.27;;
52274;SDS011;38228;50.940;4.024;2022-09-09T15:06:07;4.82;;;1.23;;
52274;SDS011;38228;50.940;4.024;2022-09-09T15:08:34;5.55;;;1.70;;
52274;SDS011;38228;50.940;4.024;2022-09-09T15:11:01;5.53;;;1.30;;
52274;SDS011;38228;50.940;4.024;2022-09-09T15:13:28;6.32;;;1.33;;
52274;SDS011;38228;50.940;4.024;2022-09-09T15:15:53;5.43;;;1.25;;
52274;SDS011;38228;50.940;4.024;2022-09-09T15:18:19;13.80;;;2.92;;
52274;SDS011;38228;50.940;4.024;2022-09-09T15:20:46;6.10;;;1.73;;
52274;SDS011;38228;50.940;4.024;2022-09-09T15:23:12;6.85;;;1.67;;
52274;SDS011;38228;50.940;4.024;2022-09-09T15:25:39;4.68;;;1.70;;
52274;SDS011;38228;50.940;4.024;2022-09-09T15:28:15;5.97;;;1.40;;
52274;SDS011;38228;50.940;4.024;2022-09-09T15:30:41;16.10;;;4.15;;
52274;SDS011;38228;50.940;4.024;2022-09-09T15:33:10;7.63;;;2.30;;
52274;SDS011;38228;50.940;4.024;2022-09-09T15:35:35;10.77;;;2.20;;
52274;SDS011;38228;50.940;4.024;2022-09-09T15:38:02;10.05;;;2.25;;
52274;SDS011;38228;50.940;4.024;2022-09-09T15:40:30;7.15;;;2.33;;
52274;SDS011;38228;50.940;4.024;2022-09-09T15:42:57;7.88;;;2.33;;
52274;SDS011;38228;50.940;4.024;2022-09-09T15:45:23;6.72;;;2.17;;
52274;SDS011;38228;50.940;4.024;2022-09-09T15:47:49;8.20;;;2.70;;
52274;SDS011;38228;50.940;4.024;2022-09-09T15:50:14;7.35;;;2.10;;
52274;SDS011;38228;50.940;4.024;2022-09-09T15:52:40;6.85;;;1.73;;
52274;SDS011;38228;50.940;4.024;2022-09-09T15:55:06;7.25;;;1.80;;
52274;SDS011;38228;50.940;4.024;2022-09-09T16:14:35;4.25;;;1.60;;
52274;SDS011;38228;50.940;4.024;2022-09-09T16:17:01;3.60;;;1.30;;
52274;SDS011;38228;50.940;4.024;2022-09-09T16:19:27;1.92;;;0.80;;
52274;SDS011;38228;50.940;4.024;2022-09-09T16:21:53;2.75;;;1.08;;
52274;SDS011;38228;50.940;4.024;2022-09-09T16:24:19;3.28;;;1.42;;
52274;SDS011;38228;50.940;4.024;2022-09-09T16:26:46;2.15;;;1.20;;
52274;SDS011;38228;50.940;4.024;2022-09-09T16:29:13;3.28;;;1.60;;
52274;SDS011;38228;50.940;4.024;2022-09-09T16:31:40;4.43;;;1.40;;
52274;SDS011;38228;50.940;4.024;2022-09-09T16:34:07;3.28;;;1.50;;
52274;SDS011;38228;50.940;4.024;2022-09-09T16:36:33;3.53;;;1.30;;
52274;SDS011;38228;50.940;4.024;2022-09-09T16:39:03;4.18;;;1.27;;
52274;SDS011;38228;50.940;4.024;2022-09-09T16:41:34;4.63;;;1.60;;
52274;SDS011;38228;50.940;4.024;2022-09-09T16:44:01;6.65;;;1.73;;
52274;SDS011;38228;50.940;4.024;2022-09-09T16:46:31;3.97;;;1.27;;
52274;SDS011;38228;50.940;4.024;2022-09-09T16:49:01;2.10;;;1.10;;
52274;SDS011;38228;50.940;4.024;2022-09-09T16:51:32;4.65;;;1.27;;
52274;SDS011;38228;50.940;4.024;2022-09-09T16:54:00;3.53;;;1.10;;
52274;SDS011;38228;50.940;4.024;2022-09-09T16:56:29;5.60;;;1.45;;
52274;SDS011;38228;50.940;4.024;2022-09-09T16:58:59;4.20;;;1.33;;
52274;SDS011;38228;50.940;4.024;2022-09-09T17:01:27;2.72;;;1.20;;
52274;SDS011;38228;50.940;4.024;2022-09-09T17:03:59;4.03;;;1.20;;
52274;SDS011;38228;50.940;4.024;2022-09-09T17:06:26;2.55;;;1.08;;
52274;SDS011;38228;50.940;4.024;2022-09-09T17:08:57;5.35;;;1.00;;
52274;SDS011;38228;50.940;4.024;2022-09-09T17:11:25;4.40;;;1.27;;
52274;SDS011;38228;50.940;4.024;2022-09-09T17:13:51;3.00;;;1.23;;
52274;SDS011;38228;50.940;4.024;2022-09-09T17:16:18;7.55;;;1.42;;
52274;SDS011;38228;50.940;4.024;2022-09-09T17:18:47;3.22;;;1.00;;
52274;SDS011;38228;50.940;4.024;2022-09-09T17:21:14;4.57;;;1.30;;
52274;SDS011;38228;50.940;4.024;2022-09-09T17:23:42;4.72;;;1.10;;
52274;SDS011;38228;50.940;4.024;2022-09-09T17:26:09;3.67;;;1.17;;
52274;SDS011;38228;50.940;4.024;2022-09-09T17:28:36;4.78;;;1.17;;
52274;SDS011;38228;50.940;4.024;2022-09-09T17:31:03;6.20;;;1.23;;
52274;SDS011;38228;50.940;4.024;2022-09-09T17:33:35;7.13;;;1.10;;
52274;SDS011;38228;50.940;4.024;2022-09-09T17:36:06;4.63;;;1.10;;
52274;SDS011;38228;50.940;4.024;2022-09-09T17:38:40;5.60;;;1.10;;
52274;SDS011;38228;50.940;4.024;2022-09-09T17:43:36;6.07;;;1.30;;
52274;SDS011;38228;50.940;4.024;2022-09-09T17:46:10;6.68;;;1.40;;
52274;SDS011;38228;50.940;4.024;2022-09-09T17:48:38;6.03;;;1.00;;
52274;SDS011;38228;50.940;4.024;2022-09-09T17:51:06;8.05;;;1.20;;
52274;SDS011;38228;50.940;4.024;2022-09-09T17:53:42;6.32;;;1.10;;
52274;SDS011;38228;50.940;4.024;2022-09-09T17:56:10;6.25;;;1.30;;
52274;SDS011;38228;50.940;4.024;2022-09-09T17:58:39;8.35;;;1.73;;
52274;SDS011;38228;50.940;4.024;2022-09-09T18:01:09;4.85;;;1.13;;
52274;SDS011;38228;50.940;4.024;2022-09-09T18:03:43;7.15;;;1.33;;
52274;SDS011;38228;50.940;4.024;2022-09-09T18:06:12;9.35;;;1.73;;
52274;SDS011;38228;50.940;4.024;2022-09-09T18:08:40;9.40;;;1.98;;
52274;SDS011;38228;50.940;4.024;2022-09-09T18:11:07;8.38;;;1.67;;
52274;SDS011;38228;50.940;4.024;2022-09-09T18:13:33;6.68;;;1.40;;
52274;SDS011;38228;50.940;4.024;2022-09-09T18:16:00;6.53;;;1.23;;
52274;SDS011;38228;50.940;4.024;2022-09-09T18:18:26;9.80;;;1.50;;
52274;SDS011;38228;50.940;4.024;2022-09-09T18:21:00;8.15;;;1.85;;
52274;SDS011;38228;50.940;4.024;2022-09-09T18:23:28;9.90;;;2.03;;
52274;SDS011;38228;50.940;4.024;2022-09-09T18:25:55;9.18;;;1.48;;
52274;SDS011;38228;50.940;4.024;2022-09-09T18:28:22;6.82;;;1.38;;
52274;SDS011;38228;50.940;4.024;2022-09-09T18:30:49;11.93;;;2.22;;
52274;SDS011;38228;50.940;4.024;2022-09-09T18:33:15;9.68;;;1.45;;
52274;SDS011;38228;50.940;4.024;2022-09-09T18:35:41;7.03;;;1.42;;
52274;SDS011;38228;50.940;4.024;2022-09-09T18:38:07;11.57;;;2.05;;
52274;SDS011;38228;50.940;4.024;2022-09-09T18:40:33;10.60;;;2.22;;
52274;SDS011;38228;50.940;4.024;2022-09-09T18:42:58;11.27;;;2.33;;
52274;SDS011;38228;50.940;4.024;2022-09-09T18:45:24;10.48;;;2.17;;
52274;SDS011;38228;50.940;4.024;2022-09-09T18:47:50;8.75;;;1.92;;
52274;SDS011;38228;50.940;4.024;2022-09-09T18:50:16;10.30;;;1.77;;
52274;SDS011;38228;50.940;4.024;2022-09-09T18:52:43;11.02;;;1.85;;
52274;SDS011;38228;50.940;4.024;2022-09-09T18:55:08;7.90;;;1.70;;
52274;SDS011;38228;50.940;4.024;2022-09-09T18:57:34;10.88;;;2.17;;
52274;SDS011;38228;50.940;4.024;2022-09-09T19:00:00;8.98;;;2.00;;
52274;SDS011;38228;50.940;4.024;2022-09-09T19:02:26;9.40;;;2.42;;
52274;SDS011;38228;50.940;4.024;2022-09-09T19:04:51;11.23;;;2.10;;
52274;SDS011;38228;50.940;4.024;2022-09-09T19:07:18;10.05;;;2.33;;
52274;SDS011;38228;50.940;4.024;2022-09-09T19:09:44;13.27;;;1.92;;
52274;SDS011;38228;50.940;4.024;2022-09-09T19:12:09;9.00;;;2.05;;
52274;SDS011;38228;50.940;4.024;2022-09-09T19:14:35;10.90;;;1.90;;
52274;SDS011;38228;50.940;4.024;2022-09-09T19:17:02;12.93;;;2.55;;
52274;SDS011;38228;50.940;4.024;2022-09-09T19:19:31;13.85;;;2.20;;
52274;SDS011;38228;50.940;4.024;2022-09-09T19:21:58;9.68;;;2.10;;
52274;SDS011;38228;50.940;4.024;2022-09-09T19:24:26;10.43;;;2.25;;
52274;SDS011;38228;50.940;4.024;2022-09-09T19:26:55;13.38;;;2.70;;
52274;SDS011;38228;50.940;4.024;2022-09-09T19:29:26;18.20;;;2.58;;
52274;SDS011;38228;50.940;4.024;2022-09-09T19:31:54;12.13;;;2.00;;
52274;SDS011;38228;50.940;4.024;2022-09-09T19:34:21;6.97;;;2.00;;
52274;SDS011;38228;50.940;4.024;2022-09-09T19:36:48;8.15;;;1.90;;
52274;SDS011;38228;50.940;4.024;2022-09-09T19:39:15;10.07;;;2.08;;
52274;SDS011;38228;50.940;4.024;2022-09-09T19:41:41;12.25;;;2.25;;
52274;SDS011;38228;50.940;4.024;2022-09-09T19:44:09;8.23;;;1.80;;
52274;SDS011;38228;50.940;4.024;2022-09-09T19:46:39;11.20;;;2.00;;
52274;SDS011;38228;50.940;4.024;2022-09-09T19:49:07;11.45;;;1.70;;
52274;SDS011;38228;50.940;4.024;2022-09-09T19:51:33;8.88;;;2.17;;
52274;SDS011;38228;50.940;4.024;2022-09-09T19:54:03;9.13;;;2.05;;
52274;SDS011;38228;50.940;4.024;2022-09-09T19:56:31;7.57;;;1.73;;
52274;SDS011;38228;50.940;4.024;2022-09-09T19:58:58;10.25;;;2.10;;
52274;SDS011;38228;50.940;4.024;2022-09-09T20:01:26;6.00;;;1.60;;
52274;SDS011;38228;50.940;4.024;2022-09-09T20:03:56;10.10;;;1.83;;
52274;SDS011;38228;50.940;4.024;2022-09-09T20:06:26;9.45;;;1.80;;
52274;SDS011;38228;50.940;4.024;2022-09-09T20:08:54;10.93;;;2.08;;
52274;SDS011;38228;50.940;4.024;2022-09-09T20:11:21;8.45;;;2.15;;